sensor_id;sensor_type;location;lat;lon;timestamp;temperature;humidity
5461;DHT22;2753;49.196;8.286;2023-07-31T00:01:30;19.40;92.30
5461;DHT22;2753;49.196;8.286;2023-07-31T00:03:55;19.20;92.60
5461;DHT22;2753;49.196;8.286;2023-07-31T00:06:21;19.20;92.70
5461;DHT22;2753;49.196;8.286;2023-07-31T00:08:47;19.20;92.60
5461;DHT22;2753;49.196;8.286;2023-07-31T00:11:12;19.30;92.50
5461;DHT22;2753;49.196;8.286;2023-07-31T00:13:38;19.30;92.70
5461;DHT22;2753;49.196;8.286;2023-07-31T00:16:03;19.20;92.70
5461;DHT22;2753;49.196;8.286;2023-07-31T00:18:29;19.20;92.70
5461;DHT22;2753;49.196;8.286;2023-07-31T00:20:55;19.20;92.70
5461;DHT22;2753;49.196;8.286;2023-07-31T00:23:20;19.20;92.80
5461;DHT22;2753;49.196;8.286;2023-07-31T00:25:46;19.20;92.90
5461;DHT22;2753;49.196;8.286;2023-07-31T00:28:12;19.20;92.70
5461;DHT22;2753;49.196;8.286;2023-07-31T00:30:37;19.30;92.60
5461;DHT22;2753;49.196;8.286;2023-07-31T00:33:03;19.30;92.60
5461;DHT22;2753;49.196;8.286;2023-07-31T00:35:29;19.30;92.60
5461;DHT22;2753;49.196;8.286;2023-07-31T00:37:58;19.30;92.70
5461;DHT22;2753;49.196;8.286;2023-07-31T00:40:24;19.20;92.60
5461;DHT22;2753;49.196;8.286;2023-07-31T00:42:49;19.20;92.70
5461;DHT22;2753;49.196;8.286;2023-07-31T00:45:15;19.10;92.90
5461;DHT22;2753;49.196;8.286;2023-07-31T00:47:41;19.10;92.90
5461;DHT22;2753;49.196;8.286;2023-07-31T00:50:07;19.40;93.10
5461;DHT22;2753;49.196;8.286;2023-07-31T00:52:33;19.10;92.90
5461;DHT22;2753;49.196;8.286;2023-07-31T00:54:59;19.10;92.90
5461;DHT22;2753;49.196;8.286;2023-07-31T00:57:25;19.00;93.10
5461;DHT22;2753;49.196;8.286;2023-07-31T00:59:51;18.90;93.20
5461;DHT22;2753;49.196;8.286;2023-07-31T01:02:16;19.00;93.20
5461;DHT22;2753;49.196;8.286;2023-07-31T01:04:43;19.00;93.10
5461;DHT22;2753;49.196;8.286;2023-07-31T01:07:20;18.90;93.10
5461;DHT22;2753;49.196;8.286;2023-07-31T01:10:11;18.90;93.10
5461;DHT22;2753;49.196;8.286;2023-07-31T01:12:41;19.00;93.20
5461;DHT22;2753;49.196;8.286;2023-07-31T01:15:09;18.90;93.30
5461;DHT22;2753;49.196;8.286;2023-07-31T01:17:41;18.90;93.20
5461;DHT22;2753;49.196;8.286;2023-07-31T01:20:24;18.90;93.10
5461;DHT22;2753;49.196;8.286;2023-07-31T01:28:15;19.00;93.10
5461;DHT22;2753;49.196;8.286;2023-07-31T01:30:47;18.90;93.10
5461;DHT22;2753;49.196;8.286;2023-07-31T01:33:15;18.90;93.20
5461;DHT22;2753;49.196;8.286;2023-07-31T01:35:44;18.80;93.60
5461;DHT22;2753;49.196;8.286;2023-07-31T01:38:10;18.70;93.60
5461;DHT22;2753;49.196;8.286;2023-07-31T01:40:35;18.60;93.80
5461;DHT22;2753;49.196;8.286;2023-07-31T01:43:01;18.50;93.80
5461;DHT22;2753;49.196;8.286;2023-07-31T01:45:27;18.60;93.90
5461;DHT22;2753;49.196;8.286;2023-07-31T01:50:18;18.50;93.70
5461;DHT22;2753;49.196;8.286;2023-07-31T01:52:44;18.50;93.90
5461;DHT22;2753;49.196;8.286;2023-07-31T01:55:10;18.50;93.80
5461;DHT22;2753;49.196;8.286;2023-07-31T01:57:37;18.50;93.80
5461;DHT22;2753;49.196;8.286;2023-07-31T02:00:03;18.50;93.80
5461;DHT22;2753;49.196;8.286;2023-07-31T02:02:29;18.50;93.80
5461;DHT22;2753;49.196;8.286;2023-07-31T02:04:55;18.50;93.60
5461;DHT22;2753;49.196;8.286;2023-07-31T02:07:20;18.60;93.60
5461;DHT22;2753;49.196;8.286;2023-07-31T02:09:46;18.60;93.90
5461;DHT22;2753;49.196;8.286;2023-07-31T02:12:13;18.60;93.60
5461;DHT22;2753;49.196;8.286;2023-07-31T02:14:40;18.40;93.90
5461;DHT22;2753;49.196;8.286;2023-07-31T02:17:06;18.30;94.20
5461;DHT22;2753;49.196;8.286;2023-07-31T02:19:32;18.40;94.10
5461;DHT22;2753;49.196;8.286;2023-07-31T02:21:57;18.40;94.20
5461;DHT22;2753;49.196;8.286;2023-07-31T02:24:24;18.40;94.20
5461;DHT22;2753;49.196;8.286;2023-07-31T02:26:50;18.30;94.30
5461;DHT22;2753;49.196;8.286;2023-07-31T02:29:15;18.40;94.20
5461;DHT22;2753;49.196;8.286;2023-07-31T02:31:41;18.40;94.20
5461;DHT22;2753;49.196;8.286;2023-07-31T02:34:06;18.40;94.10
5461;DHT22;2753;49.196;8.286;2023-07-31T02:36:32;18.50;94.10
5461;DHT22;2753;49.196;8.286;2023-07-31T02:38:58;18.40;94.30
5461;DHT22;2753;49.196;8.286;2023-07-31T02:41:23;18.40;94.30
5461;DHT22;2753;49.196;8.286;2023-07-31T02:43:49;18.20;94.60
5461;DHT22;2753;49.196;8.286;2023-07-31T02:46:15;18.20;94.80
5461;DHT22;2753;49.196;8.286;2023-07-31T02:48:40;18.20;94.50
5461;DHT22;2753;49.196;8.286;2023-07-31T02:51:06;18.30;94.50
5461;DHT22;2753;49.196;8.286;2023-07-31T02:53:32;18.40;94.50
5461;DHT22;2753;49.196;8.286;2023-07-31T02:55:57;18.40;94.40
5461;DHT22;2753;49.196;8.286;2023-07-31T02:58:23;18.40;94.50
5461;DHT22;2753;49.196;8.286;2023-07-31T03:00:48;18.40;94.40
5461;DHT22;2753;49.196;8.286;2023-07-31T03:03:14;18.40;94.40
5461;DHT22;2753;49.196;8.286;2023-07-31T03:05:40;18.30;94.50
5461;DHT22;2753;49.196;8.286;2023-07-31T03:08:06;18.20;94.70
5461;DHT22;2753;49.196;8.286;2023-07-31T03:10:31;18.20;94.80
5461;DHT22;2753;49.196;8.286;2023-07-31T03:12:57;18.00;95.00
5461;DHT22;2753;49.196;8.286;2023-07-31T03:15:23;18.10;94.80
5461;DHT22;2753;49.196;8.286;2023-07-31T03:17:48;18.10;94.70
5461;DHT22;2753;49.196;8.286;2023-07-31T03:20:14;18.20;94.60
5461;DHT22;2753;49.196;8.286;2023-07-31T03:22:40;18.30;94.50
5461;DHT22;2753;49.196;8.286;2023-07-31T03:25:06;18.30;94.50
5461;DHT22;2753;49.196;8.286;2023-07-31T03:27:31;18.30;94.40
5461;DHT22;2753;49.196;8.286;2023-07-31T03:29:57;18.40;94.40
5461;DHT22;2753;49.196;8.286;2023-07-31T03:32:23;18.20;94.70
5461;DHT22;2753;49.196;8.286;2023-07-31T03:34:49;18.00;94.70
5461;DHT22;2753;49.196;8.286;2023-07-31T03:37:15;18.10;94.70
5461;DHT22;2753;49.196;8.286;2023-07-31T03:39:40;18.00;95.00
5461;DHT22;2753;49.196;8.286;2023-07-31T03:42:06;18.00;95.00
5461;DHT22;2753;49.196;8.286;2023-07-31T03:44:32;18.00;95.00
5461;DHT22;2753;49.196;8.286;2023-07-31T03:46:58;18.10;94.90
5461;DHT22;2753;49.196;8.286;2023-07-31T03:49:23;18.00;95.10
5461;DHT22;2753;49.196;8.286;2023-07-31T03:51:49;18.00;95.10
5461;DHT22;2753;49.196;8.286;2023-07-31T03:54:15;18.00;95.00
5461;DHT22;2753;49.196;8.286;2023-07-31T03:56:41;18.00;95.10
5461;DHT22;2753;49.196;8.286;2023-07-31T03:59:06;17.90;95.30
5461;DHT22;2753;49.196;8.286;2023-07-31T04:01:32;17.90;95.40
5461;DHT22;2753;49.196;8.286;2023-07-31T04:03:58;17.80;95.60
5461;DHT22;2753;49.196;8.286;2023-07-31T04:06:23;18.00;95.40
5461;DHT22;2753;49.196;8.286;2023-07-31T04:08:49;18.00;95.60
5461;DHT22;2753;49.196;8.286;2023-07-31T04:11:15;18.00;95.40
5461;DHT22;2753;49.196;8.286;2023-07-31T04:13:41;18.00;95.60
5461;DHT22;2753;49.196;8.286;2023-07-31T04:16:06;18.70;95.90
5461;DHT22;2753;49.196;8.286;2023-07-31T04:18:32;17.90;95.60
5461;DHT22;2753;49.196;8.286;2023-07-31T04:20:58;18.00;95.50
5461;DHT22;2753;49.196;8.286;2023-07-31T04:23:25;17.90;95.50
5461;DHT22;2753;49.196;8.286;2023-07-31T04:25:51;17.80;95.70
5461;DHT22;2753;49.196;8.286;2023-07-31T04:28:16;17.80;95.70
5461;DHT22;2753;49.196;8.286;2023-07-31T04:30:42;17.90;95.80
5461;DHT22;2753;49.196;8.286;2023-07-31T04:33:08;17.80;95.70
5461;DHT22;2753;49.196;8.286;2023-07-31T04:35:34;17.80;95.90
5461;DHT22;2753;49.196;8.286;2023-07-31T04:37:59;17.80;95.80
5461;DHT22;2753;49.196;8.286;2023-07-31T04:40:25;17.90;95.70
5461;DHT22;2753;49.196;8.286;2023-07-31T04:42:51;17.80;95.80
5461;DHT22;2753;49.196;8.286;2023-07-31T04:45:16;17.80;95.80
5461;DHT22;2753;49.196;8.286;2023-07-31T04:47:42;17.90;95.70
5461;DHT22;2753;49.196;8.286;2023-07-31T04:50:08;17.70;96.00
5461;DHT22;2753;49.196;8.286;2023-07-31T04:52:34;17.70;96.10
5461;DHT22;2753;49.196;8.286;2023-07-31T04:55:00;17.80;96.00
5461;DHT22;2753;49.196;8.286;2023-07-31T04:57:25;17.80;95.90
5461;DHT22;2753;49.196;8.286;2023-07-31T04:59:51;17.80;96.10
5461;DHT22;2753;49.196;8.286;2023-07-31T05:02:17;17.80;96.00
5461;DHT22;2753;49.196;8.286;2023-07-31T05:04:42;17.80;96.00
5461;DHT22;2753;49.196;8.286;2023-07-31T05:07:08;17.80;96.00
5461;DHT22;2753;49.196;8.286;2023-07-31T05:09:34;17.90;95.90
5461;DHT22;2753;49.196;8.286;2023-07-31T05:11:59;17.90;96.10
5461;DHT22;2753;49.196;8.286;2023-07-31T05:14:26;17.90;96.00
5461;DHT22;2753;49.196;8.286;2023-07-31T05:16:51;17.90;96.00
5461;DHT22;2753;49.196;8.286;2023-07-31T05:19:17;18.00;95.90
5461;DHT22;2753;49.196;8.286;2023-07-31T05:21:43;18.00;96.10
5461;DHT22;2753;49.196;8.286;2023-07-31T05:24:10;18.00;96.10
5461;DHT22;2753;49.196;8.286;2023-07-31T05:26:36;17.90;96.10
5461;DHT22;2753;49.196;8.286;2023-07-31T05:29:01;17.80;96.20
5461;DHT22;2753;49.196;8.286;2023-07-31T05:31:27;17.90;96.20
5461;DHT22;2753;49.196;8.286;2023-07-31T05:33:53;17.90;96.20
5461;DHT22;2753;49.196;8.286;2023-07-31T05:36:19;18.00;96.30
5461;DHT22;2753;49.196;8.286;2023-07-31T05:38:45;18.00;96.30
5461;DHT22;2753;49.196;8.286;2023-07-31T05:41:13;18.00;96.50
5461;DHT22;2753;49.196;8.286;2023-07-31T05:43:39;18.00;96.60
5461;DHT22;2753;49.196;8.286;2023-07-31T05:46:05;17.90;96.70
5461;DHT22;2753;49.196;8.286;2023-07-31T05:48:32;18.00;96.70
5461;DHT22;2753;49.196;8.286;2023-07-31T05:50:59;18.00;96.70
5461;DHT22;2753;49.196;8.286;2023-07-31T05:53:25;18.00;96.90
5461;DHT22;2753;49.196;8.286;2023-07-31T05:55:51;18.00;96.80
5461;DHT22;2753;49.196;8.286;2023-07-31T05:58:16;18.10;96.90
5461;DHT22;2753;49.196;8.286;2023-07-31T06:00:42;18.00;96.80
5461;DHT22;2753;49.196;8.286;2023-07-31T06:03:08;18.00;96.90
5461;DHT22;2753;49.196;8.286;2023-07-31T06:05:33;18.00;97.00
5461;DHT22;2753;49.196;8.286;2023-07-31T06:07:59;18.10;97.00
5461;DHT22;2753;49.196;8.286;2023-07-31T06:10:25;18.10;97.10
5461;DHT22;2753;49.196;8.286;2023-07-31T06:12:51;18.10;97.10
5461;DHT22;2753;49.196;8.286;2023-07-31T06:15:16;18.10;97.20
5461;DHT22;2753;49.196;8.286;2023-07-31T06:17:44;18.20;97.30
5461;DHT22;2753;49.196;8.286;2023-07-31T06:20:10;18.30;97.20
5461;DHT22;2753;49.196;8.286;2023-07-31T06:22:36;18.40;97.10
5461;DHT22;2753;49.196;8.286;2023-07-31T06:25:02;18.40;97.10
5461;DHT22;2753;49.196;8.286;2023-07-31T06:27:28;18.30;97.00
5461;DHT22;2753;49.196;8.286;2023-07-31T06:29:54;18.30;97.20
5461;DHT22;2753;49.196;8.286;2023-07-31T06:32:19;18.40;97.20
5461;DHT22;2753;49.196;8.286;2023-07-31T06:34:45;18.40;97.20
5461;DHT22;2753;49.196;8.286;2023-07-31T06:37:11;18.40;97.20
5461;DHT22;2753;49.196;8.286;2023-07-31T06:39:36;18.40;97.20
5461;DHT22;2753;49.196;8.286;2023-07-31T06:42:03;18.40;97.20
5461;DHT22;2753;49.196;8.286;2023-07-31T06:44:29;18.40;97.10
5461;DHT22;2753;49.196;8.286;2023-07-31T06:46:55;18.40;97.20
5461;DHT22;2753;49.196;8.286;2023-07-31T06:49:20;18.50;97.10
5461;DHT22;2753;49.196;8.286;2023-07-31T06:51:46;18.60;97.30
5461;DHT22;2753;49.196;8.286;2023-07-31T06:54:12;18.60;97.30
5461;DHT22;2753;49.196;8.286;2023-07-31T06:56:37;18.60;97.20
5461;DHT22;2753;49.196;8.286;2023-07-31T06:59:03;18.60;97.20
5461;DHT22;2753;49.196;8.286;2023-07-31T07:01:29;18.70;97.20
5461;DHT22;2753;49.196;8.286;2023-07-31T07:03:54;18.80;97.30
5461;DHT22;2753;49.196;8.286;2023-07-31T07:06:22;19.00;96.90
5461;DHT22;2753;49.196;8.286;2023-07-31T07:08:48;19.20;97.10
5461;DHT22;2753;49.196;8.286;2023-07-31T07:11:13;19.40;96.60
5461;DHT22;2753;49.196;8.286;2023-07-31T07:13:39;19.40;96.20
5461;DHT22;2753;49.196;8.286;2023-07-31T07:16:05;19.40;96.30
5461;DHT22;2753;49.196;8.286;2023-07-31T07:18:30;19.50;96.40
5461;DHT22;2753;49.196;8.286;2023-07-31T07:20:56;19.70;96.30
5461;DHT22;2753;49.196;8.286;2023-07-31T07:23:23;19.70;95.80
5461;DHT22;2753;49.196;8.286;2023-07-31T07:25:49;19.80;96.00
5461;DHT22;2753;49.196;8.286;2023-07-31T07:28:15;19.80;95.70
5461;DHT22;2753;49.196;8.286;2023-07-31T07:30:41;19.90;95.80
5461;DHT22;2753;49.196;8.286;2023-07-31T07:33:06;19.70;95.80
5461;DHT22;2753;49.196;8.286;2023-07-31T07:35:35;19.90;96.00
5461;DHT22;2753;49.196;8.286;2023-07-31T07:38:04;19.90;95.60
5461;DHT22;2753;49.196;8.286;2023-07-31T07:40:30;20.00;95.30
5461;DHT22;2753;49.196;8.286;2023-07-31T07:42:55;19.90;95.40
5461;DHT22;2753;49.196;8.286;2023-07-31T07:45:21;19.90;95.70
5461;DHT22;2753;49.196;8.286;2023-07-31T07:47:47;20.00;95.40
5461;DHT22;2753;49.196;8.286;2023-07-31T07:50:12;20.20;95.20
5461;DHT22;2753;49.196;8.286;2023-07-31T07:52:38;20.10;95.20
5461;DHT22;2753;49.196;8.286;2023-07-31T07:55:04;20.20;95.20
5461;DHT22;2753;49.196;8.286;2023-07-31T07:57:30;20.30;95.30
5461;DHT22;2753;49.196;8.286;2023-07-31T07:59:55;20.20;95.10
5461;DHT22;2753;49.196;8.286;2023-07-31T08:02:22;20.30;95.00
5461;DHT22;2753;49.196;8.286;2023-07-31T08:04:48;20.10;94.60
5461;DHT22;2753;49.196;8.286;2023-07-31T08:07:14;20.30;94.70
5461;DHT22;2753;49.196;8.286;2023-07-31T08:09:40;20.20;94.80
5461;DHT22;2753;49.196;8.286;2023-07-31T08:12:06;20.30;94.70
5461;DHT22;2753;49.196;8.286;2023-07-31T08:14:32;20.10;94.80
5461;DHT22;2753;49.196;8.286;2023-07-31T08:16:58;20.20;95.10
5461;DHT22;2753;49.196;8.286;2023-07-31T08:19:24;20.30;95.20
5461;DHT22;2753;49.196;8.286;2023-07-31T08:21:49;20.40;95.10
5461;DHT22;2753;49.196;8.286;2023-07-31T08:24:15;20.40;94.90
5461;DHT22;2753;49.196;8.286;2023-07-31T08:26:41;20.40;94.60
5461;DHT22;2753;49.196;8.286;2023-07-31T08:29:07;20.50;94.70
5461;DHT22;2753;49.196;8.286;2023-07-31T08:31:32;20.50;94.60
5461;DHT22;2753;49.196;8.286;2023-07-31T08:33:58;20.70;94.60
5461;DHT22;2753;49.196;8.286;2023-07-31T08:36:24;20.80;94.10
5461;DHT22;2753;49.196;8.286;2023-07-31T08:38:49;20.90;93.80
5461;DHT22;2753;49.196;8.286;2023-07-31T08:41:16;20.90;94.10
5461;DHT22;2753;49.196;8.286;2023-07-31T08:43:49;21.00;93.90
5461;DHT22;2753;49.196;8.286;2023-07-31T08:46:15;21.30;94.20
5461;DHT22;2753;49.196;8.286;2023-07-31T08:48:42;21.30;93.40
5461;DHT22;2753;49.196;8.286;2023-07-31T08:51:08;21.50;93.10
5461;DHT22;2753;49.196;8.286;2023-07-31T08:53:34;21.60;93.00
5461;DHT22;2753;49.196;8.286;2023-07-31T08:56:00;21.70;93.00
5461;DHT22;2753;49.196;8.286;2023-07-31T08:58:31;21.80;92.70
5461;DHT22;2753;49.196;8.286;2023-07-31T09:00:58;21.90;92.80
5461;DHT22;2753;49.196;8.286;2023-07-31T09:03:26;22.00;92.60
5461;DHT22;2753;49.196;8.286;2023-07-31T09:05:52;22.30;92.30
5461;DHT22;2753;49.196;8.286;2023-07-31T09:08:20;22.40;92.10
5461;DHT22;2753;49.196;8.286;2023-07-31T09:10:47;22.50;91.80
5461;DHT22;2753;49.196;8.286;2023-07-31T09:13:14;22.50;91.90
5461;DHT22;2753;49.196;8.286;2023-07-31T09:15:41;22.50;91.20
5461;DHT22;2753;49.196;8.286;2023-07-31T09:18:08;22.50;91.60
5461;DHT22;2753;49.196;8.286;2023-07-31T09:20:34;22.70;91.40
5461;DHT22;2753;49.196;8.286;2023-07-31T09:23:08;22.80;90.50
5461;DHT22;2753;49.196;8.286;2023-07-31T09:25:34;22.60;90.40
5461;DHT22;2753;49.196;8.286;2023-07-31T09:28:09;22.60;90.40
5461;DHT22;2753;49.196;8.286;2023-07-31T09:30:49;22.60;90.50
5461;DHT22;2753;49.196;8.286;2023-07-31T09:33:15;22.70;90.60
5461;DHT22;2753;49.196;8.286;2023-07-31T09:35:41;22.70;90.00
5461;DHT22;2753;49.196;8.286;2023-07-31T09:38:11;22.70;89.90
5461;DHT22;2753;49.196;8.286;2023-07-31T09:40:45;22.70;90.00
5461;DHT22;2753;49.196;8.286;2023-07-31T09:43:21;22.50;89.80
5461;DHT22;2753;49.196;8.286;2023-07-31T09:45:47;22.50;90.40
5461;DHT22;2753;49.196;8.286;2023-07-31T09:48:15;22.60;90.50
5461;DHT22;2753;49.196;8.286;2023-07-31T09:50:42;22.80;90.70
5461;DHT22;2753;49.196;8.286;2023-07-31T09:53:09;22.80;90.50
5461;DHT22;2753;49.196;8.286;2023-07-31T09:55:35;22.90;90.10
5461;DHT22;2753;49.196;8.286;2023-07-31T09:58:09;22.90;90.20
5461;DHT22;2753;49.196;8.286;2023-07-31T10:00:36;22.90;90.30
5461;DHT22;2753;49.196;8.286;2023-07-31T10:03:05;22.90;90.30
5461;DHT22;2753;49.196;8.286;2023-07-31T10:05:35;22.80;90.30
5461;DHT22;2753;49.196;8.286;2023-07-31T10:08:01;22.90;90.50
5461;DHT22;2753;49.196;8.286;2023-07-31T10:10:27;22.70;89.70
5461;DHT22;2753;49.196;8.286;2023-07-31T10:12:54;22.70;90.00
5461;DHT22;2753;49.196;8.286;2023-07-31T10:15:21;22.70;90.30
5461;DHT22;2753;49.196;8.286;2023-07-31T10:17:48;22.70;90.10
5461;DHT22;2753;49.196;8.286;2023-07-31T10:20:16;22.80;90.30
5461;DHT22;2753;49.196;8.286;2023-07-31T10:22:45;22.80;90.10
5461;DHT22;2753;49.196;8.286;2023-07-31T10:25:15;22.80;90.10
5461;DHT22;2753;49.196;8.286;2023-07-31T10:27:41;22.80;90.20
5461;DHT22;2753;49.196;8.286;2023-07-31T10:30:09;22.70;90.00
5461;DHT22;2753;49.196;8.286;2023-07-31T10:32:38;22.70;89.70
5461;DHT22;2753;49.196;8.286;2023-07-31T10:35:05;22.70;90.00
5461;DHT22;2753;49.196;8.286;2023-07-31T10:37:39;22.70;90.10
5461;DHT22;2753;49.196;8.286;2023-07-31T10:40:06;22.60;90.00
5461;DHT22;2753;49.196;8.286;2023-07-31T10:42:36;22.50;90.00
5461;DHT22;2753;49.196;8.286;2023-07-31T10:45:06;22.60;90.10
5461;DHT22;2753;49.196;8.286;2023-07-31T10:48:03;22.70;90.10
5461;DHT22;2753;49.196;8.286;2023-07-31T10:50:30;22.60;90.00
5461;DHT22;2753;49.196;8.286;2023-07-31T10:52:58;22.60;90.30
5461;DHT22;2753;49.196;8.286;2023-07-31T10:58:12;22.80;90.30
5461;DHT22;2753;49.196;8.286;2023-07-31T11:00:42;22.80;90.10
5461;DHT22;2753;49.196;8.286;2023-07-31T11:03:14;22.70;89.20
5461;DHT22;2753;49.196;8.286;2023-07-31T11:05:52;22.90;89.80
5461;DHT22;2753;49.196;8.286;2023-07-31T11:13:29;22.80;89.00
5461;DHT22;2753;49.196;8.286;2023-07-31T11:15:55;22.90;89.20
5461;DHT22;2753;49.196;8.286;2023-07-31T11:18:21;23.00;88.70
5461;DHT22;2753;49.196;8.286;2023-07-31T11:20:46;23.20;88.70
5461;DHT22;2753;49.196;8.286;2023-07-31T11:23:12;23.30;88.80
5461;DHT22;2753;49.196;8.286;2023-07-31T11:25:39;23.30;88.40
5461;DHT22;2753;49.196;8.286;2023-07-31T11:28:13;23.50;89.00
5461;DHT22;2753;49.196;8.286;2023-07-31T11:30:39;23.60;88.60
5461;DHT22;2753;49.196;8.286;2023-07-31T11:33:10;23.50;88.00
5461;DHT22;2753;49.196;8.286;2023-07-31T11:35:43;23.60;88.40
5461;DHT22;2753;49.196;8.286;2023-07-31T11:40:49;23.70;87.90
5461;DHT22;2753;49.196;8.286;2023-07-31T11:43:15;23.70;87.80
5461;DHT22;2753;49.196;8.286;2023-07-31T11:45:51;23.70;88.40
5461;DHT22;2753;49.196;8.286;2023-07-31T11:48:34;23.70;86.70
5461;DHT22;2753;49.196;8.286;2023-07-31T11:51:03;23.70;86.90
5461;DHT22;2753;49.196;8.286;2023-07-31T11:53:36;23.70;87.20
5461;DHT22;2753;49.196;8.286;2023-07-31T11:56:04;23.60;86.50
5461;DHT22;2753;49.196;8.286;2023-07-31T11:58:31;23.60;86.50
5461;DHT22;2753;49.196;8.286;2023-07-31T12:00:59;23.70;86.30
5461;DHT22;2753;49.196;8.286;2023-07-31T12:03:26;23.60;85.20
5461;DHT22;2753;49.196;8.286;2023-07-31T12:05:53;23.60;86.00
5461;DHT22;2753;49.196;8.286;2023-07-31T12:08:21;23.70;86.20
5461;DHT22;2753;49.196;8.286;2023-07-31T12:10:50;23.70;85.70
5461;DHT22;2753;49.196;8.286;2023-07-31T12:13:24;23.70;86.30
5461;DHT22;2753;49.196;8.286;2023-07-31T12:15:57;23.70;86.90
5461;DHT22;2753;49.196;8.286;2023-07-31T12:18:25;23.80;86.70
5461;DHT22;2753;49.196;8.286;2023-07-31T12:20:59;24.00;86.50
5461;DHT22;2753;49.196;8.286;2023-07-31T12:23:27;23.90;85.60
5461;DHT22;2753;49.196;8.286;2023-07-31T12:26:14;24.00;85.90
5461;DHT22;2753;49.196;8.286;2023-07-31T12:28:47;24.10;85.80
5461;DHT22;2753;49.196;8.286;2023-07-31T12:31:18;24.00;85.90
5461;DHT22;2753;49.196;8.286;2023-07-31T12:33:45;24.10;86.20
5461;DHT22;2753;49.196;8.286;2023-07-31T12:36:13;24.10;86.90
5461;DHT22;2753;49.196;8.286;2023-07-31T12:38:40;24.10;86.50
5461;DHT22;2753;49.196;8.286;2023-07-31T12:41:06;24.00;87.00
5461;DHT22;2753;49.196;8.286;2023-07-31T12:43:33;23.90;85.50
5461;DHT22;2753;49.196;8.286;2023-07-31T12:45:59;23.90;85.90
5461;DHT22;2753;49.196;8.286;2023-07-31T12:48:25;23.80;86.60
5461;DHT22;2753;49.196;8.286;2023-07-31T12:50:50;23.70;87.30
5461;DHT22;2753;49.196;8.286;2023-07-31T12:53:16;23.70;87.20
5461;DHT22;2753;49.196;8.286;2023-07-31T12:55:42;23.60;87.70
5461;DHT22;2753;49.196;8.286;2023-07-31T12:58:08;23.60;86.90
5461;DHT22;2753;49.196;8.286;2023-07-31T13:00:33;23.60;86.90
5461;DHT22;2753;49.196;8.286;2023-07-31T13:03:00;23.50;86.80
5461;DHT22;2753;49.196;8.286;2023-07-31T13:05:27;23.50;87.20
5461;DHT22;2753;49.196;8.286;2023-07-31T13:07:53;23.50;87.20
5461;DHT22;2753;49.196;8.286;2023-07-31T13:10:19;23.30;87.80
5461;DHT22;2753;49.196;8.286;2023-07-31T13:12:45;23.40;87.50
5461;DHT22;2753;49.196;8.286;2023-07-31T13:15:11;23.30;87.00
5461;DHT22;2753;49.196;8.286;2023-07-31T13:17:37;23.40;87.50
5461;DHT22;2753;49.196;8.286;2023-07-31T13:20:03;23.40;88.20
5461;DHT22;2753;49.196;8.286;2023-07-31T13:22:29;23.30;87.90
5461;DHT22;2753;49.196;8.286;2023-07-31T13:24:55;23.30;88.00
5461;DHT22;2753;49.196;8.286;2023-07-31T13:27:20;23.40;88.10
5461;DHT22;2753;49.196;8.286;2023-07-31T13:29:48;23.40;88.10
5461;DHT22;2753;49.196;8.286;2023-07-31T13:32:15;23.40;87.90
5461;DHT22;2753;49.196;8.286;2023-07-31T13:34:41;23.40;88.10
5461;DHT22;2753;49.196;8.286;2023-07-31T13:37:06;23.50;88.10
5461;DHT22;2753;49.196;8.286;2023-07-31T13:39:32;23.60;87.60
5461;DHT22;2753;49.196;8.286;2023-07-31T13:41:59;23.50;88.20
5461;DHT22;2753;49.196;8.286;2023-07-31T13:44:25;23.60;88.60
5461;DHT22;2753;49.196;8.286;2023-07-31T13:46:51;23.50;87.10
5461;DHT22;2753;49.196;8.286;2023-07-31T13:49:17;23.50;86.80
5461;DHT22;2753;49.196;8.286;2023-07-31T13:51:42;23.50;87.60
5461;DHT22;2753;49.196;8.286;2023-07-31T13:54:08;23.50;86.90
5461;DHT22;2753;49.196;8.286;2023-07-31T13:56:34;23.50;87.20
5461;DHT22;2753;49.196;8.286;2023-07-31T13:59:00;23.50;87.90
5461;DHT22;2753;49.196;8.286;2023-07-31T14:01:27;23.50;88.30
5461;DHT22;2753;49.196;8.286;2023-07-31T14:03:52;23.50;88.30
5461;DHT22;2753;49.196;8.286;2023-07-31T14:06:19;23.40;87.80
5461;DHT22;2753;49.196;8.286;2023-07-31T14:08:44;23.30;87.90
5461;DHT22;2753;49.196;8.286;2023-07-31T14:11:10;23.30;88.00
5461;DHT22;2753;49.196;8.286;2023-07-31T14:13:36;23.30;87.80
5461;DHT22;2753;49.196;8.286;2023-07-31T14:16:01;23.30;88.00
5461;DHT22;2753;49.196;8.286;2023-07-31T14:18:27;23.20;88.30
5461;DHT22;2753;49.196;8.286;2023-07-31T14:20:53;23.20;88.60
5461;DHT22;2753;49.196;8.286;2023-07-31T14:23:18;23.20;88.50
5461;DHT22;2753;49.196;8.286;2023-07-31T14:25:45;23.20;88.70
5461;DHT22;2753;49.196;8.286;2023-07-31T14:28:11;23.20;88.60
5461;DHT22;2753;49.196;8.286;2023-07-31T14:30:37;23.30;89.00
5461;DHT22;2753;49.196;8.286;2023-07-31T14:33:03;23.30;88.30
5461;DHT22;2753;49.196;8.286;2023-07-31T14:35:28;23.20;88.60
5461;DHT22;2753;49.196;8.286;2023-07-31T14:37:54;23.30;89.10
5461;DHT22;2753;49.196;8.286;2023-07-31T14:40:20;23.30;88.90
5461;DHT22;2753;49.196;8.286;2023-07-31T14:42:46;23.30;89.10
5461;DHT22;2753;49.196;8.286;2023-07-31T14:45:12;23.30;89.40
5461;DHT22;2753;49.196;8.286;2023-07-31T14:47:38;23.40;89.50
5461;DHT22;2753;49.196;8.286;2023-07-31T14:50:04;23.40;89.10
5461;DHT22;2753;49.196;8.286;2023-07-31T14:52:29;23.50;89.40
5461;DHT22;2753;49.196;8.286;2023-07-31T14:54:55;23.60;89.50
5461;DHT22;2753;49.196;8.286;2023-07-31T14:57:21;23.60;89.30
5461;DHT22;2753;49.196;8.286;2023-07-31T14:59:47;23.60;89.40
5461;DHT22;2753;49.196;8.286;2023-07-31T15:02:14;23.60;89.00
5461;DHT22;2753;49.196;8.286;2023-07-31T15:04:40;23.70;89.50
5461;DHT22;2753;49.196;8.286;2023-07-31T15:07:05;23.70;89.30
5461;DHT22;2753;49.196;8.286;2023-07-31T15:09:31;23.70;88.80
5461;DHT22;2753;49.196;8.286;2023-07-31T15:11:57;23.70;89.20
5461;DHT22;2753;49.196;8.286;2023-07-31T15:14:24;23.60;89.30
5461;DHT22;2753;49.196;8.286;2023-07-31T15:16:49;23.70;89.40
5461;DHT22;2753;49.196;8.286;2023-07-31T15:19:15;23.70;89.10
5461;DHT22;2753;49.196;8.286;2023-07-31T15:21:41;23.60;88.40
5461;DHT22;2753;49.196;8.286;2023-07-31T15:24:07;23.70;88.60
5461;DHT22;2753;49.196;8.286;2023-07-31T15:26:32;23.70;89.00
5461;DHT22;2753;49.196;8.286;2023-07-31T15:29:04;23.70;89.50
5461;DHT22;2753;49.196;8.286;2023-07-31T15:31:34;23.70;89.60
5461;DHT22;2753;49.196;8.286;2023-07-31T15:34:00;23.70;89.70
5461;DHT22;2753;49.196;8.286;2023-07-31T15:36:25;23.70;89.80
5461;DHT22;2753;49.196;8.286;2023-07-31T15:38:51;23.70;90.00
5461;DHT22;2753;49.196;8.286;2023-07-31T15:41:18;23.60;90.00
5461;DHT22;2753;49.196;8.286;2023-07-31T15:43:44;23.60;90.00
5461;DHT22;2753;49.196;8.286;2023-07-31T15:46:15;23.60;90.10
5461;DHT22;2753;49.196;8.286;2023-07-31T15:48:41;23.60;90.80
5461;DHT22;2753;49.196;8.286;2023-07-31T15:51:07;23.50;91.00
5461;DHT22;2753;49.196;8.286;2023-07-31T15:53:33;23.50;91.50
5461;DHT22;2753;49.196;8.286;2023-07-31T15:55:59;23.40;91.50
5461;DHT22;2753;49.196;8.286;2023-07-31T15:58:24;23.40;91.30
5461;DHT22;2753;49.196;8.286;2023-07-31T16:00:50;23.40;91.10
5461;DHT22;2753;49.196;8.286;2023-07-31T16:03:16;23.40;90.70
5461;DHT22;2753;49.196;8.286;2023-07-31T16:05:41;23.40;90.80
5461;DHT22;2753;49.196;8.286;2023-07-31T16:08:08;23.40;90.80
5461;DHT22;2753;49.196;8.286;2023-07-31T16:10:33;23.40;90.80
5461;DHT22;2753;49.196;8.286;2023-07-31T16:13:00;23.50;90.80
5461;DHT22;2753;49.196;8.286;2023-07-31T16:15:25;23.40;90.80
5461;DHT22;2753;49.196;8.286;2023-07-31T16:17:51;23.30;90.50